sensor_id;sensor_type;location;lat;lon;timestamp;P1;durP1;ratioP1;P2;durP2;ratioP2
17890;SDS011;9071;48.220;14.480;2024-01-10T00:01:12;27.03;;;10.80;;
17890;SDS011;9071;48.220;14.480;2024-01-10T00:06:14;24.90;;;9.97;;
17890;SDS011;9071;48.220;14.480;2024-01-10T00:11:16;26.10;;;10.57;;
17890;SDS011;9071;48.220;14.480;2024-01-10T00:16:19;23.67;;;10.60;;
17890;SDS011;9071;48.220;14.480;2024-01-10T00:21:21;23.33;;;10.37;;
17890;SDS011;9071;48.220;14.480;2024-01-10T00:26:23;26.03;;;10.50;;
17890;SDS011;9071;48.220;14.480;2024-01-10T00:31:27;24.40;;;10.87;;
17890;SDS011;9071;48.220;14.480;2024-01-10T00:36:29;27.97;;;11.83;;
17890;SDS011;9071;48.220;14.480;2024-01-10T00:41:31;25.27;;;11.67;;
17890;SDS011;9071;48.220;14.480;2024-01-10T00:46:34;22.37;;;11.03;;
17890;SDS011;9071;48.220;14.480;2024-01-10T00:51:36;28.70;;;11.23;;
17890;SDS011;9071;48.220;14.480;2024-01-10T00:56:38;23.20;;;9.47;;
17890;SDS011;9071;48.220;14.480;2024-01-10T01:01:42;27.37;;;11.00;;
17890;SDS011;9071;48.220;14.480;2024-01-10T01:06:44;25.90;;;10.60;;
17890;SDS011;9071;48.220;14.480;2024-01-10T01:11:47;23.77;;;10.60;;
17890;SDS011;9071;48.220;14.480;2024-01-10T01:16:51;26.70;;;10.70;;
17890;SDS011;9071;48.220;14.480;2024-01-10T01:21:53;24.20;;;10.90;;
17890;SDS011;9071;48.220;14.480;2024-01-10T01:26:55;23.23;;;10.57;;
17890;SDS011;9071;48.220;14.480;2024-01-10T01:32:01;24.33;;;10.53;;
17890;SDS011;9071;48.220;14.480;2024-01-10T01:37:03;25.00;;;10.77;;
17890;SDS011;9071;48.220;14.480;2024-01-10T01:42:06;24.40;;;10.73;;
17890;SDS011;9071;48.220;14.480;2024-01-10T01:47:09;25.63;;;11.17;;
17890;SDS011;9071;48.220;14.480;2024-01-10T01:52:11;30.23;;;12.10;;
17890;SDS011;9071;48.220;14.480;2024-01-10T01:57:14;27.43;;;11.10;;
17890;SDS011;9071;48.220;14.480;2024-01-10T02:02:17;27.80;;;11.40;;
17890;SDS011;9071;48.220;14.480;2024-01-10T02:07:21;24.17;;;10.40;;
17890;SDS011;9071;48.220;14.480;2024-01-10T02:12:24;28.57;;;12.77;;
17890;SDS011;9071;48.220;14.480;2024-01-10T02:17:27;27.07;;;11.13;;
17890;SDS011;9071;48.220;14.480;2024-01-10T02:22:29;30.60;;;13.37;;
17890;SDS011;9071;48.220;14.480;2024-01-10T02:27:33;29.67;;;12.00;;
17890;SDS011;9071;48.220;14.480;2024-01-10T02:32:36;27.40;;;12.27;;
17890;SDS011;9071;48.220;14.480;2024-01-10T02:37:38;29.70;;;12.73;;
17890;SDS011;9071;48.220;14.480;2024-01-10T02:42:42;26.97;;;11.93;;
17890;SDS011;9071;48.220;14.480;2024-01-10T02:47:44;28.10;;;12.43;;
17890;SDS011;9071;48.220;14.480;2024-01-10T02:52:46;30.37;;;13.50;;
17890;SDS011;9071;48.220;14.480;2024-01-10T02:57:50;28.80;;;12.53;;
17890;SDS011;9071;48.220;14.480;2024-01-10T03:02:52;26.77;;;11.37;;
17890;SDS011;9071;48.220;14.480;2024-01-10T03:07:54;33.70;;;14.40;;
17890;SDS011;9071;48.220;14.480;2024-01-10T03:12:57;39.87;;;14.30;;
17890;SDS011;9071;48.220;14.480;2024-01-10T03:17:59;31.07;;;12.77;;
17890;SDS011;9071;48.220;14.480;2024-01-10T03:23:01;37.43;;;14.23;;
17890;SDS011;9071;48.220;14.480;2024-01-10T03:28:05;34.77;;;14.90;;
17890;SDS011;9071;48.220;14.480;2024-01-10T03:33:07;33.60;;;14.97;;
17890;SDS011;9071;48.220;14.480;2024-01-10T03:38:09;36.43;;;15.20;;
17890;SDS011;9071;48.220;14.480;2024-01-10T03:43:13;36.23;;;14.50;;
17890;SDS011;9071;48.220;14.480;2024-01-10T03:48:16;35.73;;;14.80;;
17890;SDS011;9071;48.220;14.480;2024-01-10T03:53:18;37.17;;;15.57;;
17890;SDS011;9071;48.220;14.480;2024-01-10T03:58:23;36.77;;;15.70;;
17890;SDS011;9071;48.220;14.480;2024-01-10T04:03:25;38.03;;;16.30;;
17890;SDS011;9071;48.220;14.480;2024-01-10T04:08:27;40.03;;;16.10;;
17890;SDS011;9071;48.220;14.480;2024-01-10T04:13:31;32.27;;;13.90;;
17890;SDS011;9071;48.220;14.480;2024-01-10T04:18:33;40.07;;;17.03;;
17890;SDS011;9071;48.220;14.480;2024-01-10T04:23:35;36.83;;;16.07;;
17890;SDS011;9071;48.220;14.480;2024-01-10T04:28:38;35.80;;;16.17;;
17890;SDS011;9071;48.220;14.480;2024-01-10T04:33:41;36.47;;;15.47;;
17890;SDS011;9071;48.220;14.480;2024-01-10T04:38:43;35.70;;;14.47;;
17890;SDS011;9071;48.220;14.480;2024-01-10T04:43:46;35.07;;;14.83;;
17890;SDS011;9071;48.220;14.480;2024-01-10T04:48:48;38.13;;;16.13;;
17890;SDS011;9071;48.220;14.480;2024-01-10T04:53:50;33.63;;;15.27;;
17890;SDS011;9071;48.220;14.480;2024-01-10T04:58:54;35.97;;;15.13;;
17890;SDS011;9071;48.220;14.480;2024-01-10T05:03:56;36.73;;;15.53;;
17890;SDS011;9071;48.220;14.480;2024-01-10T05:08:58;42.70;;;15.83;;
17890;SDS011;9071;48.220;14.480;2024-01-10T05:14:01;35.90;;;15.17;;
17890;SDS011;9071;48.220;14.480;2024-01-10T05:19:04;30.30;;;14.17;;
17890;SDS011;9071;48.220;14.480;2024-01-10T05:24:06;38.60;;;16.27;;
17890;SDS011;9071;48.220;14.480;2024-01-10T05:29:09;38.33;;;17.03;;
17890;SDS011;9071;48.220;14.480;2024-01-10T05:34:11;35.67;;;15.83;;
17890;SDS011;9071;48.220;14.480;2024-01-10T05:39:13;39.33;;;16.77;;
17890;SDS011;9071;48.220;14.480;2024-01-10T05:44:18;39.97;;;16.63;;
17890;SDS011;9071;48.220;14.480;2024-01-10T05:49:20;38.50;;;16.23;;
17890;SDS011;9071;48.220;14.480;2024-01-10T05:54:22;36.10;;;16.07;;
17890;SDS011;9071;48.220;14.480;2024-01-10T05:59:26;47.33;;;17.40;;
17890;SDS011;9071;48.220;14.480;2024-01-10T06:04:28;37.77;;;16.93;;
17890;SDS011;9071;48.220;14.480;2024-01-10T06:09:31;38.27;;;17.27;;
17890;SDS011;9071;48.220;14.480;2024-01-10T06:14:34;41.57;;;17.03;;
17890;SDS011;9071;48.220;14.480;2024-01-10T06:19:37;45.30;;;18.33;;
17890;SDS011;9071;48.220;14.480;2024-01-10T06:24:39;46.70;;;18.40;;
17890;SDS011;9071;48.220;14.480;2024-01-10T06:29:43;43.83;;;17.50;;
17890;SDS011;9071;48.220;14.480;2024-01-10T06:34:45;39.27;;;16.50;;
17890;SDS011;9071;48.220;14.480;2024-01-10T06:39:47;45.60;;;18.87;;
17890;SDS011;9071;48.220;14.480;2024-01-10T06:44:51;41.40;;;18.50;;
17890;SDS011;9071;48.220;14.480;2024-01-10T06:49:53;43.00;;;18.37;;
17890;SDS011;9071;48.220;14.480;2024-01-10T06:54:55;41.03;;;18.03;;
17890;SDS011;9071;48.220;14.480;2024-01-10T06:59:58;42.37;;;17.70;;
17890;SDS011;9071;48.220;14.480;2024-01-10T07:05:02;43.97;;;19.13;;
17890;SDS011;9071;48.220;14.480;2024-01-10T07:10:08;46.37;;;19.17;;
17890;SDS011;9071;48.220;14.480;2024-01-10T07:15:13;47.53;;;18.27;;
17890;SDS011;9071;48.220;14.480;2024-01-10T07:20:15;39.70;;;18.50;;
17890;SDS011;9071;48.220;14.480;2024-01-10T07:25:17;46.30;;;19.60;;
17890;SDS011;9071;48.220;14.480;2024-01-10T07:30:23;47.07;;;18.47;;
17890;SDS011;9071;48.220;14.480;2024-01-10T07:35:25;46.13;;;19.37;;
17890;SDS011;9071;48.220;14.480;2024-01-10T07:40:29;46.63;;;20.03;;
17890;SDS011;9071;48.220;14.480;2024-01-10T07:45:33;49.77;;;20.70;;
17890;SDS011;9071;48.220;14.480;2024-01-10T07:50:35;43.97;;;18.80;;
17890;SDS011;9071;48.220;14.480;2024-01-10T07:55:37;42.77;;;20.60;;
17890;SDS011;9071;48.220;14.480;2024-01-10T08:00:41;46.37;;;19.60;;
17890;SDS011;9071;48.220;14.480;2024-01-10T08:05:43;46.50;;;19.90;;
17890;SDS011;9071;48.220;14.480;2024-01-10T08:10:46;48.33;;;20.37;;
17890;SDS011;9071;48.220;14.480;2024-01-10T08:15:50;48.40;;;20.47;;
17890;SDS011;9071;48.220;14.480;2024-01-10T08:20:52;49.60;;;19.37;;
17890;SDS011;9071;48.220;14.480;2024-01-10T08:25:55;48.67;;;21.37;;
17890;SDS011;9071;48.220;14.480;2024-01-10T08:30:58;41.83;;;19.93;;
17890;SDS011;9071;48.220;14.480;2024-01-10T08:36:01;46.07;;;18.80;;
17890;SDS011;9071;48.220;14.480;2024-01-10T08:41:04;44.13;;;19.27;;
17890;SDS011;9071;48.220;14.480;2024-01-10T08:46:08;48.97;;;19.30;;
17890;SDS011;9071;48.220;14.480;2024-01-10T08:51:10;49.03;;;19.27;;
17890;SDS011;9071;48.220;14.480;2024-01-10T08:56:16;49.60;;;20.23;;
17890;SDS011;9071;48.220;14.480;2024-01-10T09:01:19;51.43;;;20.13;;
17890;SDS011;9071;48.220;14.480;2024-01-10T09:06:21;47.70;;;20.50;;
17890;SDS011;9071;48.220;14.480;2024-01-10T09:11:23;48.07;;;20.13;;
17890;SDS011;9071;48.220;14.480;2024-01-10T09:16:27;46.33;;;20.17;;
17890;SDS011;9071;48.220;14.480;2024-01-10T09:21:29;44.97;;;20.73;;
17890;SDS011;9071;48.220;14.480;2024-01-10T09:26:31;46.90;;;21.43;;
17890;SDS011;9071;48.220;14.480;2024-01-10T09:31:35;48.33;;;20.50;;
17890;SDS011;9071;48.220;14.480;2024-01-10T09:36:37;44.80;;;19.60;;
17890;SDS011;9071;48.220;14.480;2024-01-10T09:41:40;43.57;;;19.70;;
17890;SDS011;9071;48.220;14.480;2024-01-10T09:46:51;46.83;;;19.93;;
17890;SDS011;9071;48.220;14.480;2024-01-10T09:51:58;45.57;;;20.13;;
17890;SDS011;9071;48.220;14.480;2024-01-10T09:57:01;48.17;;;20.20;;
17890;SDS011;9071;48.220;14.480;2024-01-10T10:02:05;46.17;;;19.77;;
17890;SDS011;9071;48.220;14.480;2024-01-10T10:07:08;39.70;;;19.40;;
17890;SDS011;9071;48.220;14.480;2024-01-10T10:18:13;41.90;;;20.67;;
17890;SDS011;9071;48.220;14.480;2024-01-10T10:23:15;43.90;;;20.27;;
17890;SDS011;9071;48.220;14.480;2024-01-10T10:28:20;39.67;;;19.10;;
17890;SDS011;9071;48.220;14.480;2024-01-10T10:33:24;42.67;;;20.70;;
17890;SDS011;9071;48.220;14.480;2024-01-10T10:38:26;42.93;;;21.63;;
17890;SDS011;9071;48.220;14.480;2024-01-10T10:43:28;37.50;;;18.50;;
17890;SDS011;9071;48.220;14.480;2024-01-10T10:48:36;39.27;;;19.50;;
17890;SDS011;9071;48.220;14.480;2024-01-10T10:53:39;38.67;;;18.60;;
17890;SDS011;9071;48.220;14.480;2024-01-10T10:58:45;38.57;;;19.43;;
17890;SDS011;9071;48.220;14.480;2024-01-10T11:03:50;44.13;;;20.37;;
17890;SDS011;9071;48.220;14.480;2024-01-10T11:08:52;44.27;;;20.27;;
17890;SDS011;9071;48.220;14.480;2024-01-10T11:14:03;42.77;;;19.67;;
17890;SDS011;9071;48.220;14.480;2024-01-10T11:19:23;38.80;;;20.13;;
17890;SDS011;9071;48.220;14.480;2024-01-10T11:24:44;39.03;;;20.27;;
17890;SDS011;9071;48.220;14.480;2024-01-10T11:29:46;37.03;;;19.57;;
17890;SDS011;9071;48.220;14.480;2024-01-10T11:34:52;39.60;;;19.50;;
17890;SDS011;9071;48.220;14.480;2024-01-10T11:39:56;45.60;;;19.87;;
17890;SDS011;9071;48.220;14.480;2024-01-10T11:44:58;42.43;;;20.03;;
17890;SDS011;9071;48.220;14.480;2024-01-10T11:50:03;39.17;;;19.67;;
17890;SDS011;9071;48.220;14.480;2024-01-10T11:55:08;39.73;;;20.23;;
17890;SDS011;9071;48.220;14.480;2024-01-10T12:00:10;46.67;;;22.27;;
17890;SDS011;9071;48.220;14.480;2024-01-10T12:05:14;36.13;;;19.03;;
17890;SDS011;9071;48.220;14.480;2024-01-10T12:10:17;43.17;;;20.13;;
17890;SDS011;9071;48.220;14.480;2024-01-10T12:15:18;38.40;;;18.97;;
17890;SDS011;9071;48.220;14.480;2024-01-10T12:20:22;36.73;;;19.40;;
17890;SDS011;9071;48.220;14.480;2024-01-10T12:25:24;39.83;;;19.03;;
17890;SDS011;9071;48.220;14.480;2024-01-10T12:30:27;37.23;;;18.50;;
17890;SDS011;9071;48.220;14.480;2024-01-10T12:35:31;44.07;;;20.20;;
17890;SDS011;9071;48.220;14.480;2024-01-10T12:40:33;40.53;;;19.80;;
17890;SDS011;9071;48.220;14.480;2024-01-10T12:45:35;39.53;;;19.53;;
17890;SDS011;9071;48.220;14.480;2024-01-10T12:50:39;38.47;;;18.57;;
17890;SDS011;9071;48.220;14.480;2024-01-10T12:55:41;38.53;;;19.93;;
17890;SDS011;9071;48.220;14.480;2024-01-10T13:00:44;40.33;;;19.87;;
17890;SDS011;9071;48.220;14.480;2024-01-10T13:05:47;36.60;;;19.10;;
17890;SDS011;9071;48.220;14.480;2024-01-10T13:10:49;36.93;;;18.90;;
17890;SDS011;9071;48.220;14.480;2024-01-10T13:15:51;42.57;;;19.97;;
17890;SDS011;9071;48.220;14.480;2024-01-10T13:20:55;39.23;;;18.60;;
17890;SDS011;9071;48.220;14.480;2024-01-10T13:25:59;43.33;;;20.97;;
17890;SDS011;9071;48.220;14.480;2024-01-10T13:31:02;37.97;;;19.67;;
17890;SDS011;9071;48.220;14.480;2024-01-10T13:36:06;37.80;;;19.87;;
17890;SDS011;9071;48.220;14.480;2024-01-10T13:41:09;39.00;;;19.60;;
17890;SDS011;9071;48.220;14.480;2024-01-10T13:46:11;40.20;;;18.53;;
17890;SDS011;9071;48.220;14.480;2024-01-10T13:51:14;41.80;;;19.53;;
17890;SDS011;9071;48.220;14.480;2024-01-10T13:56:16;38.17;;;19.20;;
17890;SDS011;9071;48.220;14.480;2024-01-10T14:01:18;36.93;;;18.53;;
17890;SDS011;9071;48.220;14.480;2024-01-10T14:06:22;37.07;;;19.03;;
17890;SDS011;9071;48.220;14.480;2024-01-10T14:11:24;43.10;;;20.00;;
17890;SDS011;9071;48.220;14.480;2024-01-10T14:16:27;38.27;;;19.20;;
17890;SDS011;9071;48.220;14.480;2024-01-10T14:21:30;38.03;;;19.27;;
17890;SDS011;9071;48.220;14.480;2024-01-10T14:26:32;41.43;;;19.30;;
17890;SDS011;9071;48.220;14.480;2024-01-10T14:31:35;38.10;;;19.83;;
17890;SDS011;9071;48.220;14.480;2024-01-10T14:36:38;39.70;;;19.93;;
17890;SDS011;9071;48.220;14.480;2024-01-10T14:41:41;41.33;;;20.03;;
17890;SDS011;9071;48.220;14.480;2024-01-10T14:46:44;42.00;;;20.83;;
17890;SDS011;9071;48.220;14.480;2024-01-10T14:51:47;41.40;;;19.47;;
17890;SDS011;9071;48.220;14.480;2024-01-10T14:56:49;40.30;;;20.43;;
17890;SDS011;9071;48.220;14.480;2024-01-10T15:01:53;35.73;;;19.47;;
17890;SDS011;9071;48.220;14.480;2024-01-10T15:06:57;45.57;;;20.30;;
17890;SDS011;9071;48.220;14.480;2024-01-10T15:12:02;37.87;;;19.53;;
17890;SDS011;9071;48.220;14.480;2024-01-10T15:17:07;39.57;;;19.23;;
17890;SDS011;9071;48.220;14.480;2024-01-10T15:22:11;44.77;;;20.83;;
17890;SDS011;9071;48.220;14.480;2024-01-10T15:27:14;43.90;;;21.17;;
17890;SDS011;9071;48.220;14.480;2024-01-10T15:32:16;40.03;;;20.27;;
17890;SDS011;9071;48.220;14.480;2024-01-10T15:37:19;44.53;;;21.00;;
17890;SDS011;9071;48.220;14.480;2024-01-10T15:42:21;40.30;;;19.87;;
17890;SDS011;9071;48.220;14.480;2024-01-10T15:47:23;43.10;;;20.77;;
17890;SDS011;9071;48.220;14.480;2024-01-10T15:52:26;44.47;;;22.33;;
17890;SDS011;9071;48.220;14.480;2024-01-10T15:57:28;46.73;;;22.13;;
17890;SDS011;9071;48.220;14.480;2024-01-10T16:02:30;51.53;;;24.33;;
17890;SDS011;9071;48.220;14.480;2024-01-10T16:07:35;52.20;;;22.87;;
17890;SDS011;9071;48.220;14.480;2024-01-10T16:12:38;45.13;;;22.60;;
17890;SDS011;9071;48.220;14.480;2024-01-10T16:17:40;47.43;;;21.57;;
17890;SDS011;9071;48.220;14.480;2024-01-10T16:22:43;46.17;;;20.70;;
17890;SDS011;9071;48.220;14.480;2024-01-10T16:27:45;43.57;;;21.93;;
17890;SDS011;9071;48.220;14.480;2024-01-10T16:32:48;47.70;;;22.00;;
17890;SDS011;9071;48.220;14.480;2024-01-10T16:37:52;48.57;;;24.57;;
17890;SDS011;9071;48.220;14.480;2024-01-10T16:42:54;47.80;;;23.80;;
17890;SDS011;9071;48.220;14.480;2024-01-10T16:47:56;44.10;;;22.00;;
17890;SDS011;9071;48.220;14.480;2024-01-10T16:52:59;48.27;;;23.93;;
17890;SDS011;9071;48.220;14.480;2024-01-10T16:58:03;48.80;;;23.67;;
17890;SDS011;9071;48.220;14.480;2024-01-10T17:03:05;56.97;;;27.63;;
17890;SDS011;9071;48.220;14.480;2024-01-10T17:08:08;59.10;;;28.70;;
17890;SDS011;9071;48.220;14.480;2024-01-10T17:13:10;51.10;;;25.30;;
17890;SDS011;9071;48.220;14.480;2024-01-10T17:18:12;43.17;;;22.50;;
17890;SDS011;9071;48.220;14.480;2024-01-10T17:23:16;41.87;;;21.27;;
17890;SDS011;9071;48.220;14.480;2024-01-10T17:28:18;51.60;;;24.10;;
17890;SDS011;9071;48.220;14.480;2024-01-10T17:33:22;54.20;;;26.33;;
17890;SDS011;9071;48.220;14.480;2024-01-10T17:38:25;54.13;;;26.47;;
17890;SDS011;9071;48.220;14.480;2024-01-10T17:43:29;55.57;;;26.43;;
17890;SDS011;9071;48.220;14.480;2024-01-10T17:48:31;79.33;;;32.70;;
17890;SDS011;9071;48.220;14.480;2024-01-10T17:53:34;66.37;;;27.60;;
17890;SDS011;9071;48.220;14.480;2024-01-10T17:58:36;58.17;;;26.67;;
17890;SDS011;9071;48.220;14.480;2024-01-10T18:03:38;57.77;;;26.93;;
17890;SDS011;9071;48.220;14.480;2024-01-10T18:08:42;63.50;;;29.10;;
17890;SDS011;9071;48.220;14.480;2024-01-10T18:13:44;69.33;;;30.33;;
17890;SDS011;9071;48.220;14.480;2024-01-10T18:18:46;61.63;;;27.67;;
17890;SDS011;9071;48.220;14.480;2024-01-10T18:23:49;64.20;;;28.87;;
17890;SDS011;9071;48.220;14.480;2024-01-10T18:28:51;70.73;;;30.30;;
17890;SDS011;9071;48.220;14.480;2024-01-10T18:33:53;60.03;;;27.83;;
17890;SDS011;9071;48.220;14.480;2024-01-10T18:38:57;58.13;;;26.77;;
17890;SDS011;9071;48.220;14.480;2024-01-10T18:43:59;59.73;;;27.27;;
17890;SDS011;9071;48.220;14.480;2024-01-10T18:49:02;58.30;;;28.20;;
17890;SDS011;9071;48.220;14.480;2024-01-10T18:54:06;69.13;;;31.13;;
17890;SDS011;9071;48.220;14.480;2024-01-10T18:59:08;64.20;;;30.00;;
17890;SDS011;9071;48.220;14.480;2024-01-10T19:04:10;67.40;;;31.30;;
17890;SDS011;9071;48.220;14.480;2024-01-10T19:09:14;65.43;;;30.70;;
17890;SDS011;9071;48.220;14.480;2024-01-10T19:14:16;81.67;;;37.43;;
17890;SDS011;9071;48.220;14.480;2024-01-10T19:19:18;80.43;;;35.70;;
17890;SDS011;9071;48.220;14.480;2024-01-10T19:24:23;71.83;;;32.60;;
17890;SDS011;9071;48.220;14.480;2024-01-10T19:29:26;93.03;;;42.50;;
17890;SDS011;9071;48.220;14.480;2024-01-10T19:34:28;80.23;;;35.47;;
17890;SDS011;9071;48.220;14.480;2024-01-10T19:39:31;66.43;;;31.37;;
17890;SDS011;9071;48.220;14.480;2024-01-10T19:44:34;74.23;;;34.23;;
17890;SDS011;9071;48.220;14.480;2024-01-10T19:49:36;64.73;;;31.17;;
17890;SDS011;9071;48.220;14.480;2024-01-10T19:54:39;70.10;;;29.77;;
17890;SDS011;9071;48.220;14.480;2024-01-10T19:59:41;67.73;;;30.27;;
17890;SDS011;9071;48.220;14.480;2024-01-10T20:04:43;64.50;;;30.20;;
17890;SDS011;9071;48.220;14.480;2024-01-10T20:09:47;64.07;;;29.60;;
17890;SDS011;9071;48.220;14.480;2024-01-10T20:14:50;65.63;;;29.90;;
17890;SDS011;9071;48.220;14.480;2024-01-10T20:19:52;70.33;;;31.53;;
17890;SDS011;9071;48.220;14.480;2024-01-10T20:24:56;69.23;;;30.43;;
17890;SDS011;9071;48.220;14.480;2024-01-10T20:29:58;72.43;;;30.83;;
17890;SDS011;9071;48.220;14.480;2024-01-10T20:35:00;72.10;;;31.57;;
17890;SDS011;9071;48.220;14.480;2024-01-10T20:40:04;72.37;;;32.60;;
17890;SDS011;9071;48.220;14.480;2024-01-10T20:45:06;72.07;;;32.57;;
17890;SDS011;9071;48.220;14.480;2024-01-10T20:50:09;78.87;;;33.53;;
17890;SDS011;9071;48.220;14.480;2024-01-10T20:55:13;77.53;;;35.70;;
17890;SDS011;9071;48.220;14.480;2024-01-10T21:00:15;76.73;;;33.90;;
17890;SDS011;9071;48.220;14.480;2024-01-10T21:05:22;73.37;;;32.20;;
17890;SDS011;9071;48.220;14.480;2024-01-10T21:10:26;73.47;;;30.47;;
17890;SDS011;9071;48.220;14.480;2024-01-10T21:15:28;67.03;;;30.40;;
17890;SDS011;9071;48.220;14.480;2024-01-10T21:20:30;70.80;;;29.43;;
17890;SDS011;9071;48.220;14.480;2024-01-10T21:25:33;69.03;;;30.77;;
17890;SDS011;9071;48.220;14.480;2024-01-10T21:30:35;67.57;;;31.40;;
17890;SDS011;9071;48.220;14.480;2024-01-10T21:35:37;73.13;;;32.20;;
17890;SDS011;9071;48.220;14.480;2024-01-10T21:40:41;72.37;;;32.17;;
17890;SDS011;9071;48.220;14.480;2024-01-10T21:45:43;70.17;;;32.30;;
17890;SDS011;9071;48.220;14.480;2024-01-10T21:50:45;73.00;;;31.83;;
17890;SDS011;9071;48.220;14.480;2024-01-10T21:55:48;77.40;;;32.10;;
17890;SDS011;9071;48.220;14.480;2024-01-10T22:00:50;73.97;;;31.87;;
17890;SDS011;9071;48.220;14.480;2024-01-10T22:05:52;73.53;;;29.30;;
17890;SDS011;9071;48.220;14.480;2024-01-10T22:10:56;70.73;;;29.37;;
17890;SDS011;9071;48.220;14.480;2024-01-10T22:15:58;63.53;;;30.27;;
17890;SDS011;9071;48.220;14.480;2024-01-10T22:21:00;69.07;;;31.27;;
17890;SDS011;9071;48.220;14.480;2024-01-10T22:26:03;83.73;;;36.20;;
17890;SDS011;9071;48.220;14.480;2024-01-10T22:31:05;78.37;;;34.33;;
17890;SDS011;9071;48.220;14.480;2024-01-10T22:36:08;79.20;;;32.63;;
17890;SDS011;9071;48.220;14.480;2024-01-10T22:41:11;70.20;;;29.70;;
17890;SDS011;9071;48.220;14.480;2024-01-10T22:46:14;68.80;;;30.73;;
17890;SDS011;9071;48.220;14.480;2024-01-10T22:51:17;68.57;;;29.07;;
17890;SDS011;9071;48.220;14.480;2024-01-10T22:56:20;68.80;;;28.60;;
17890;SDS011;9071;48.220;14.480;2024-01-10T23:01:22;65.40;;;28.73;;
17890;SDS011;9071;48.220;14.480;2024-01-10T23:06:25;69.60;;;30.00;;
17890;SDS011;9071;48.220;14.480;2024-01-10T23:11:29;69.20;;;29.10;;
17890;SDS011;9071;48.220;14.480;2024-01-10T23:16:31;64.10;;;27.57;;
17890;SDS011;9071;48.220;14.480;2024-01-10T23:21:33;63.97;;;28.63;;
17890;SDS011;9071;48.220;14.480;2024-01-10T23:26:38;67.83;;;29.57;;
17890;SDS011;9071;48.220;14.480;2024-01-10T23:31:40;67.87;;;28.67;;
17890;SDS011;9071;48.220;14.480;2024-01-10T23:36:42;73.00;;;31.57;;
17890;SDS011;9071;48.220;14.480;2024-01-10T23:41:45;74.77;;;30.63;;
17890;SDS011;9071;48.220;14.480;2024-01-10T23:46:48;82.20;;;32.33;;
17890;SDS011;9071;48.220;14.480;2024-01-10T23:51:50;76.30;;;31.20;;
17890;SDS011;9071;48.220;14.480;2024-01-10T23:56:54;73.93;;;30.33;;
